sensor_id;sensor_type;location;lat;lon;timestamp;temperature;humidity
7494;DHT22;3788;49.902;8.590;2023-02-25T00:01:11;6.50;99.60
7494;DHT22;3788;49.902;8.590;2023-02-25T00:03:40;6.50;99.60
7494;DHT22;3788;49.902;8.590;2023-02-25T00:06:09;6.50;99.70
7494;DHT22;3788;49.902;8.590;2023-02-25T00:08:38;6.40;99.70
7494;DHT22;3788;49.902;8.590;2023-02-25T00:11:06;6.30;99.80
7494;DHT22;3788;49.902;8.590;2023-02-25T00:13:34;6.30;99.90
7494;DHT22;3788;49.902;8.590;2023-02-25T00:16:01;6.30;99.90
7494;DHT22;3788;49.902;8.590;2023-02-25T00:18:28;6.30;99.90
7494;DHT22;3788;49.902;8.590;2023-02-25T00:20:58;6.40;99.90
7494;DHT22;3788;49.902;8.590;2023-02-25T00:23:25;6.30;99.90
7494;DHT22;3788;49.902;8.590;2023-02-25T00:25:57;6.30;99.90
7494;DHT22;3788;49.902;8.590;2023-02-25T00:28:24;6.30;99.90
7494;DHT22;3788;49.902;8.590;2023-02-25T00:30:51;6.40;99.90
7494;DHT22;3788;49.902;8.590;2023-02-25T00:33:18;6.40;99.90
7494;DHT22;3788;49.902;8.590;2023-02-25T00:35:45;6.40;99.90
7494;DHT22;3788;49.902;8.590;2023-02-25T00:38:14;6.40;99.90
7494;DHT22;3788;49.902;8.590;2023-02-25T00:40:42;6.40;99.90
7494;DHT22;3788;49.902;8.590;2023-02-25T00:43:08;6.50;99.90
7494;DHT22;3788;49.902;8.590;2023-02-25T00:45:37;6.40;99.90
7494;DHT22;3788;49.902;8.590;2023-02-25T00:48:05;6.40;99.90
7494;DHT22;3788;49.902;8.590;2023-02-25T00:50:31;6.40;99.90
7494;DHT22;3788;49.902;8.590;2023-02-25T00:52:58;6.40;99.90
7494;DHT22;3788;49.902;8.590;2023-02-25T00:55:26;6.30;99.90
7494;DHT22;3788;49.902;8.590;2023-02-25T00:57:58;6.30;99.90
7494;DHT22;3788;49.902;8.590;2023-02-25T01:00:25;6.30;99.90
7494;DHT22;3788;49.902;8.590;2023-02-25T01:02:54;6.30;99.90
7494;DHT22;3788;49.902;8.590;2023-02-25T01:05:21;6.30;99.90
7494;DHT22;3788;49.902;8.590;2023-02-25T01:07:48;6.30;99.90
7494;DHT22;3788;49.902;8.590;2023-02-25T01:10:15;6.30;99.90
7494;DHT22;3788;49.902;8.590;2023-02-25T01:12:43;6.30;99.90
7494;DHT22;3788;49.902;8.590;2023-02-25T01:15:11;6.30;99.90
7494;DHT22;3788;49.902;8.590;2023-02-25T01:17:38;6.30;99.90
7494;DHT22;3788;49.902;8.590;2023-02-25T01:20:05;6.30;99.90
7494;DHT22;3788;49.902;8.590;2023-02-25T01:22:37;6.30;99.90
7494;DHT22;3788;49.902;8.590;2023-02-25T01:25:09;6.20;99.90
7494;DHT22;3788;49.902;8.590;2023-02-25T01:27:35;6.20;99.90
7494;DHT22;3788;49.902;8.590;2023-02-25T01:30:05;6.20;99.90
7494;DHT22;3788;49.902;8.590;2023-02-25T01:32:31;6.20;99.90
7494;DHT22;3788;49.902;8.590;2023-02-25T01:34:58;6.20;99.90
7494;DHT22;3788;49.902;8.590;2023-02-25T01:37:25;6.20;99.90
7494;DHT22;3788;49.902;8.590;2023-02-25T01:39:52;6.20;99.90
7494;DHT22;3788;49.902;8.590;2023-02-25T01:42:18;6.20;99.90
7494;DHT22;3788;49.902;8.590;2023-02-25T01:47:57;6.00;99.90
7494;DHT22;3788;49.902;8.590;2023-02-25T01:50:30;6.00;99.90
7494;DHT22;3788;49.902;8.590;2023-02-25T01:52:59;6.00;99.90
7494;DHT22;3788;49.902;8.590;2023-02-25T01:55:27;5.90;99.90
7494;DHT22;3788;49.902;8.590;2023-02-25T01:57:56;5.90;99.90
7494;DHT22;3788;49.902;8.590;2023-02-25T02:00:23;5.90;99.90
7494;DHT22;3788;49.902;8.590;2023-02-25T02:02:54;5.90;99.90
7494;DHT22;3788;49.902;8.590;2023-02-25T02:05:24;5.80;99.90
7494;DHT22;3788;49.902;8.590;2023-02-25T02:07:52;5.80;99.90
7494;DHT22;3788;49.902;8.590;2023-02-25T02:10:20;5.80;99.90
7494;DHT22;3788;49.902;8.590;2023-02-25T02:12:47;5.80;99.90
7494;DHT22;3788;49.902;8.590;2023-02-25T02:15:14;5.80;99.90
7494;DHT22;3788;49.902;8.590;2023-02-25T02:17:44;5.70;99.90
7494;DHT22;3788;49.902;8.590;2023-02-25T02:20:18;5.70;99.90
7494;DHT22;3788;49.902;8.590;2023-02-25T02:22:53;5.70;99.90
7494;DHT22;3788;49.902;8.590;2023-02-25T02:28:37;5.70;99.90
7494;DHT22;3788;49.902;8.590;2023-02-25T02:34:14;5.60;99.90
7494;DHT22;3788;49.902;8.590;2023-02-25T02:36:51;5.60;99.90
7494;DHT22;3788;49.902;8.590;2023-02-25T02:39:24;5.60;99.90
7494;DHT22;3788;49.902;8.590;2023-02-25T02:41:59;5.60;99.90
7494;DHT22;3788;49.902;8.590;2023-02-25T02:44:29;5.60;99.90
7494;DHT22;3788;49.902;8.590;2023-02-25T02:47:03;5.60;99.90
7494;DHT22;3788;49.902;8.590;2023-02-25T02:49:35;5.60;99.90
7494;DHT22;3788;49.902;8.590;2023-02-25T02:52:07;5.60;99.90
7494;DHT22;3788;49.902;8.590;2023-02-25T02:54:40;5.60;99.90
7494;DHT22;3788;49.902;8.590;2023-02-25T02:57:08;5.60;99.90
7494;DHT22;3788;49.902;8.590;2023-02-25T02:59:39;5.60;99.90
7494;DHT22;3788;49.902;8.590;2023-02-25T03:02:13;5.70;99.90
7494;DHT22;3788;49.902;8.590;2023-02-25T03:04:42;5.70;99.90
7494;DHT22;3788;49.902;8.590;2023-02-25T03:07:12;5.70;99.90
7494;DHT22;3788;49.902;8.590;2023-02-25T03:09:44;5.60;99.90
7494;DHT22;3788;49.902;8.590;2023-02-25T03:12:11;5.60;99.90
7494;DHT22;3788;49.902;8.590;2023-02-25T03:14:38;5.60;99.90
7494;DHT22;3788;49.902;8.590;2023-02-25T03:17:10;5.50;99.90
7494;DHT22;3788;49.902;8.590;2023-02-25T03:19:40;5.50;99.90
7494;DHT22;3788;49.902;8.590;2023-02-25T03:22:11;5.50;99.90
7494;DHT22;3788;49.902;8.590;2023-02-25T03:24:42;5.40;99.90
7494;DHT22;3788;49.902;8.590;2023-02-25T03:27:24;5.40;99.90
7494;DHT22;3788;49.902;8.590;2023-02-25T03:29:52;5.40;99.80
7494;DHT22;3788;49.902;8.590;2023-02-25T03:32:23;5.40;99.80
7494;DHT22;3788;49.902;8.590;2023-02-25T03:34:53;5.40;99.70
7494;DHT22;3788;49.902;8.590;2023-02-25T03:37:27;5.40;99.60
7494;DHT22;3788;49.902;8.590;2023-02-25T03:39:57;5.50;99.90
7494;DHT22;3788;49.902;8.590;2023-02-25T03:42:27;5.50;99.60
7494;DHT22;3788;49.902;8.590;2023-02-25T03:44:58;5.50;99.50
7494;DHT22;3788;49.902;8.590;2023-02-25T03:47:30;5.50;99.40
7494;DHT22;3788;49.902;8.590;2023-02-25T03:50:01;5.50;99.40
7494;DHT22;3788;49.902;8.590;2023-02-25T03:52:29;5.50;99.40
7494;DHT22;3788;49.902;8.590;2023-02-25T03:54:57;5.50;99.40
7494;DHT22;3788;49.902;8.590;2023-02-25T03:57:25;5.50;99.40
7494;DHT22;3788;49.902;8.590;2023-02-25T03:59:54;5.50;99.50
7494;DHT22;3788;49.902;8.590;2023-02-25T04:02:24;5.50;99.50
7494;DHT22;3788;49.902;8.590;2023-02-25T04:04:54;5.50;99.50
7494;DHT22;3788;49.902;8.590;2023-02-25T04:07:21;5.50;99.50
7494;DHT22;3788;49.902;8.590;2023-02-25T04:09:48;5.40;99.50
7494;DHT22;3788;49.902;8.590;2023-02-25T04:12:14;5.50;99.50
7494;DHT22;3788;49.902;8.590;2023-02-25T04:14:41;5.50;99.60
7494;DHT22;3788;49.902;8.590;2023-02-25T04:17:08;5.50;99.60
7494;DHT22;3788;49.902;8.590;2023-02-25T04:19:35;5.50;99.60
7494;DHT22;3788;49.902;8.590;2023-02-25T04:22:03;5.50;99.60
7494;DHT22;3788;49.902;8.590;2023-02-25T04:24:32;5.50;99.70
7494;DHT22;3788;49.902;8.590;2023-02-25T04:26:59;5.50;99.80
7494;DHT22;3788;49.902;8.590;2023-02-25T04:29:27;5.50;99.90
7494;DHT22;3788;49.902;8.590;2023-02-25T04:31:54;5.50;99.90
7494;DHT22;3788;49.902;8.590;2023-02-25T04:34:21;5.50;99.90
7494;DHT22;3788;49.902;8.590;2023-02-25T04:36:48;5.50;99.70
7494;DHT22;3788;49.902;8.590;2023-02-25T04:39:17;5.50;99.70
7494;DHT22;3788;49.902;8.590;2023-02-25T04:41:44;5.50;99.70
7494;DHT22;3788;49.902;8.590;2023-02-25T04:44:11;5.50;99.70
7494;DHT22;3788;49.902;8.590;2023-02-25T04:46:39;5.50;99.70
7494;DHT22;3788;49.902;8.590;2023-02-25T04:49:07;5.50;99.80
7494;DHT22;3788;49.902;8.590;2023-02-25T04:51:36;5.50;99.80
7494;DHT22;3788;49.902;8.590;2023-02-25T04:54:03;5.50;99.90
7494;DHT22;3788;49.902;8.590;2023-02-25T04:56:31;5.60;99.90
7494;DHT22;3788;49.902;8.590;2023-02-25T04:58:58;5.60;99.90
7494;DHT22;3788;49.902;8.590;2023-02-25T05:01:24;5.60;99.80
7494;DHT22;3788;49.902;8.590;2023-02-25T05:03:51;5.60;99.70
7494;DHT22;3788;49.902;8.590;2023-02-25T05:06:21;5.60;99.60
7494;DHT22;3788;49.902;8.590;2023-02-25T05:08:48;5.60;99.70
7494;DHT22;3788;49.902;8.590;2023-02-25T05:11:16;5.60;99.60
7494;DHT22;3788;49.902;8.590;2023-02-25T05:13:44;5.60;99.60
7494;DHT22;3788;49.902;8.590;2023-02-25T05:16:13;5.60;99.50
7494;DHT22;3788;49.902;8.590;2023-02-25T05:18:42;5.60;99.50
7494;DHT22;3788;49.902;8.590;2023-02-25T05:21:10;5.70;99.30
7494;DHT22;3788;49.902;8.590;2023-02-25T05:23:37;5.70;99.10
7494;DHT22;3788;49.902;8.590;2023-02-25T05:26:04;5.70;99.00
7494;DHT22;3788;49.902;8.590;2023-02-25T05:28:31;5.70;98.90
7494;DHT22;3788;49.902;8.590;2023-02-25T05:31:03;5.70;98.80
7494;DHT22;3788;49.902;8.590;2023-02-25T05:33:30;5.70;98.90
7494;DHT22;3788;49.902;8.590;2023-02-25T05:35:56;5.60;98.80
7494;DHT22;3788;49.902;8.590;2023-02-25T05:38:23;5.60;98.80
7494;DHT22;3788;49.902;8.590;2023-02-25T05:40:50;5.60;98.80
7494;DHT22;3788;49.902;8.590;2023-02-25T05:43:17;5.60;98.70
7494;DHT22;3788;49.902;8.590;2023-02-25T05:45:43;5.60;98.70
7494;DHT22;3788;49.902;8.590;2023-02-25T05:48:11;5.60;98.70
7494;DHT22;3788;49.902;8.590;2023-02-25T05:50:38;5.60;98.60
7494;DHT22;3788;49.902;8.590;2023-02-25T05:53:06;5.60;98.50
7494;DHT22;3788;49.902;8.590;2023-02-25T05:55:32;5.60;98.20
7494;DHT22;3788;49.902;8.590;2023-02-25T05:57:59;5.60;98.10
7494;DHT22;3788;49.902;8.590;2023-02-25T06:00:26;5.60;98.00
7494;DHT22;3788;49.902;8.590;2023-02-25T06:02:52;5.60;97.90
7494;DHT22;3788;49.902;8.590;2023-02-25T06:05:20;5.60;97.80
7494;DHT22;3788;49.902;8.590;2023-02-25T06:07:47;5.50;97.70
7494;DHT22;3788;49.902;8.590;2023-02-25T06:10:14;5.50;97.90
7494;DHT22;3788;49.902;8.590;2023-02-25T06:12:40;5.50;97.90
7494;DHT22;3788;49.902;8.590;2023-02-25T06:15:08;5.40;97.80
7494;DHT22;3788;49.902;8.590;2023-02-25T06:17:34;5.40;97.80
7494;DHT22;3788;49.902;8.590;2023-02-25T06:20:02;5.40;97.80
7494;DHT22;3788;49.902;8.590;2023-02-25T06:22:31;5.50;97.70
7494;DHT22;3788;49.902;8.590;2023-02-25T06:24:58;5.50;97.70
7494;DHT22;3788;49.902;8.590;2023-02-25T06:27:25;5.50;97.60
7494;DHT22;3788;49.902;8.590;2023-02-25T06:29:51;5.50;97.60
7494;DHT22;3788;49.902;8.590;2023-02-25T06:32:18;5.50;97.60
7494;DHT22;3788;49.902;8.590;2023-02-25T06:34:45;5.60;97.70
7494;DHT22;3788;49.902;8.590;2023-02-25T06:37:12;5.60;97.60
7494;DHT22;3788;49.902;8.590;2023-02-25T06:39:40;5.60;97.60
7494;DHT22;3788;49.902;8.590;2023-02-25T06:42:08;5.60;97.60
7494;DHT22;3788;49.902;8.590;2023-02-25T06:44:35;5.70;97.70
7494;DHT22;3788;49.902;8.590;2023-02-25T06:47:01;5.70;97.70
7494;DHT22;3788;49.902;8.590;2023-02-25T06:49:28;5.70;97.70
7494;DHT22;3788;49.902;8.590;2023-02-25T06:51:55;5.70;97.80
7494;DHT22;3788;49.902;8.590;2023-02-25T06:54:22;5.70;97.80
7494;DHT22;3788;49.902;8.590;2023-02-25T06:56:50;5.70;97.90
7494;DHT22;3788;49.902;8.590;2023-02-25T06:59:17;5.60;98.00
7494;DHT22;3788;49.902;8.590;2023-02-25T07:01:44;5.60;98.10
7494;DHT22;3788;49.902;8.590;2023-02-25T07:04:14;5.60;98.30
7494;DHT22;3788;49.902;8.590;2023-02-25T07:06:41;5.70;98.20
7494;DHT22;3788;49.902;8.590;2023-02-25T07:09:08;5.70;98.20
7494;DHT22;3788;49.902;8.590;2023-02-25T07:11:35;5.70;98.30
7494;DHT22;3788;49.902;8.590;2023-02-25T07:14:05;5.70;98.30
7494;DHT22;3788;49.902;8.590;2023-02-25T07:16:32;5.70;98.40
7494;DHT22;3788;49.902;8.590;2023-02-25T07:18:59;5.70;98.40
7494;DHT22;3788;49.902;8.590;2023-02-25T07:21:27;5.70;98.40
7494;DHT22;3788;49.902;8.590;2023-02-25T07:23:55;5.70;98.30
7494;DHT22;3788;49.902;8.590;2023-02-25T07:26:23;5.80;98.20
7494;DHT22;3788;49.902;8.590;2023-02-25T07:28:53;5.80;98.00
7494;DHT22;3788;49.902;8.590;2023-02-25T07:31:21;5.80;97.90
7494;DHT22;3788;49.902;8.590;2023-02-25T07:33:49;5.80;97.90
7494;DHT22;3788;49.902;8.590;2023-02-25T07:36:16;5.80;98.00
7494;DHT22;3788;49.902;8.590;2023-02-25T07:38:43;5.80;98.00
7494;DHT22;3788;49.902;8.590;2023-02-25T07:41:12;5.90;97.90
7494;DHT22;3788;49.902;8.590;2023-02-25T07:43:39;5.90;97.90
7494;DHT22;3788;49.902;8.590;2023-02-25T07:46:06;5.90;97.90
7494;DHT22;3788;49.902;8.590;2023-02-25T07:48:35;6.00;97.90
7494;DHT22;3788;49.902;8.590;2023-02-25T07:51:06;6.00;98.00
7494;DHT22;3788;49.902;8.590;2023-02-25T07:53:33;6.00;98.00
7494;DHT22;3788;49.902;8.590;2023-02-25T07:56:00;6.00;98.00
7494;DHT22;3788;49.902;8.590;2023-02-25T07:58:27;6.00;97.90
7494;DHT22;3788;49.902;8.590;2023-02-25T08:00:55;6.00;97.90
7494;DHT22;3788;49.902;8.590;2023-02-25T08:03:22;6.00;98.10
7494;DHT22;3788;49.902;8.590;2023-02-25T08:05:51;6.00;98.20
7494;DHT22;3788;49.902;8.590;2023-02-25T08:08:19;6.00;98.30
7494;DHT22;3788;49.902;8.590;2023-02-25T08:10:46;6.00;98.60
7494;DHT22;3788;49.902;8.590;2023-02-25T08:13:13;6.00;98.70
7494;DHT22;3788;49.902;8.590;2023-02-25T08:15:40;6.10;98.60
7494;DHT22;3788;49.902;8.590;2023-02-25T08:18:09;6.10;98.60
7494;DHT22;3788;49.902;8.590;2023-02-25T08:20:36;6.10;98.80
7494;DHT22;3788;49.902;8.590;2023-02-25T08:23:04;6.10;98.90
7494;DHT22;3788;49.902;8.590;2023-02-25T08:25:31;6.10;98.60
7494;DHT22;3788;49.902;8.590;2023-02-25T08:27:59;6.10;98.60
7494;DHT22;3788;49.902;8.590;2023-02-25T08:30:26;6.10;98.90
7494;DHT22;3788;49.902;8.590;2023-02-25T08:32:54;6.00;99.00
7494;DHT22;3788;49.902;8.590;2023-02-25T08:35:22;6.10;99.30
7494;DHT22;3788;49.902;8.590;2023-02-25T08:37:50;6.20;99.40
7494;DHT22;3788;49.902;8.590;2023-02-25T08:40:18;6.20;99.10
7494;DHT22;3788;49.902;8.590;2023-02-25T08:42:45;6.20;99.10
7494;DHT22;3788;49.902;8.590;2023-02-25T08:45:12;6.20;99.00
7494;DHT22;3788;49.902;8.590;2023-02-25T08:47:39;6.20;98.90
7494;DHT22;3788;49.902;8.590;2023-02-25T08:50:06;6.20;99.00
7494;DHT22;3788;49.902;8.590;2023-02-25T08:52:34;6.10;99.10
7494;DHT22;3788;49.902;8.590;2023-02-25T08:55:01;6.10;99.20
7494;DHT22;3788;49.902;8.590;2023-02-25T08:57:30;6.20;99.40
7494;DHT22;3788;49.902;8.590;2023-02-25T08:59:57;6.20;99.50
7494;DHT22;3788;49.902;8.590;2023-02-25T09:02:24;6.30;99.50
7494;DHT22;3788;49.902;8.590;2023-02-25T09:04:50;6.30;99.40
7494;DHT22;3788;49.902;8.590;2023-02-25T09:07:18;6.40;99.40
7494;DHT22;3788;49.902;8.590;2023-02-25T09:09:46;6.50;99.10
7494;DHT22;3788;49.902;8.590;2023-02-25T09:12:13;6.60;98.90
7494;DHT22;3788;49.902;8.590;2023-02-25T09:14:41;6.70;98.30
7494;DHT22;3788;49.902;8.590;2023-02-25T09:17:08;6.70;97.80
7494;DHT22;3788;49.902;8.590;2023-02-25T09:19:35;6.80;97.30
7494;DHT22;3788;49.902;8.590;2023-02-25T09:22:03;6.80;97.10
7494;DHT22;3788;49.902;8.590;2023-02-25T09:24:30;6.80;96.80
7494;DHT22;3788;49.902;8.590;2023-02-25T09:26:57;6.90;96.70
7494;DHT22;3788;49.902;8.590;2023-02-25T09:29:24;6.90;96.60
7494;DHT22;3788;49.902;8.590;2023-02-25T09:31:52;6.90;96.50
7494;DHT22;3788;49.902;8.590;2023-02-25T09:34:19;6.90;96.20
7494;DHT22;3788;49.902;8.590;2023-02-25T09:36:46;7.00;95.10
7494;DHT22;3788;49.902;8.590;2023-02-25T09:39:13;7.00;95.30
7494;DHT22;3788;49.902;8.590;2023-02-25T09:41:45;7.10;94.80
7494;DHT22;3788;49.902;8.590;2023-02-25T09:44:17;7.20;94.80
7494;DHT22;3788;49.902;8.590;2023-02-25T09:46:48;7.30;94.80
7494;DHT22;3788;49.902;8.590;2023-02-25T09:49:23;7.30;94.70
7494;DHT22;3788;49.902;8.590;2023-02-25T09:51:56;7.50;94.50
7494;DHT22;3788;49.902;8.590;2023-02-25T09:54:31;7.60;93.60
7494;DHT22;3788;49.902;8.590;2023-02-25T09:57:00;7.60;93.00
7494;DHT22;3788;49.902;8.590;2023-02-25T09:59:28;7.60;92.50
7494;DHT22;3788;49.902;8.590;2023-02-25T10:01:59;7.70;91.70
7494;DHT22;3788;49.902;8.590;2023-02-25T10:04:37;7.80;91.50
7494;DHT22;3788;49.902;8.590;2023-02-25T10:07:10;7.80;91.20
7494;DHT22;3788;49.902;8.590;2023-02-25T10:09:47;7.90;91.30
7494;DHT22;3788;49.902;8.590;2023-02-25T10:12:23;7.90;91.00
7494;DHT22;3788;49.902;8.590;2023-02-25T10:15:04;8.10;90.30
7494;DHT22;3788;49.902;8.590;2023-02-25T10:17:39;8.10;88.80
7494;DHT22;3788;49.902;8.590;2023-02-25T10:20:29;8.20;88.50
7494;DHT22;3788;49.902;8.590;2023-02-25T10:26:25;8.50;87.90
7494;DHT22;3788;49.902;8.590;2023-02-25T10:28:57;8.80;88.50
7494;DHT22;3788;49.902;8.590;2023-02-25T10:31:24;9.20;88.60
7494;DHT22;3788;49.902;8.590;2023-02-25T10:33:52;9.70;84.90
7494;DHT22;3788;49.902;8.590;2023-02-25T10:36:24;10.00;80.90
7494;DHT22;3788;49.902;8.590;2023-02-25T10:38:53;10.10;80.00
7494;DHT22;3788;49.902;8.590;2023-02-25T10:41:21;10.10;80.10
7494;DHT22;3788;49.902;8.590;2023-02-25T10:43:52;10.30;79.50
7494;DHT22;3788;49.902;8.590;2023-02-25T10:46:24;10.20;78.10
7494;DHT22;3788;49.902;8.590;2023-02-25T10:48:55;10.20;79.60
7494;DHT22;3788;49.902;8.590;2023-02-25T10:51:25;10.20;81.10
7494;DHT22;3788;49.902;8.590;2023-02-25T10:54:05;10.30;80.80
7494;DHT22;3788;49.902;8.590;2023-02-25T10:56:38;10.40;80.20
7494;DHT22;3788;49.902;8.590;2023-02-25T10:59:20;10.40;80.20
7494;DHT22;3788;49.902;8.590;2023-02-25T11:01:48;10.40;79.80
7494;DHT22;3788;49.902;8.590;2023-02-25T11:04:19;10.20;78.30
7494;DHT22;3788;49.902;8.590;2023-02-25T11:06:48;10.10;79.90
7494;DHT22;3788;49.902;8.590;2023-02-25T11:09:33;10.10;80.70
7494;DHT22;3788;49.902;8.590;2023-02-25T11:12:14;10.30;79.00
7494;DHT22;3788;49.902;8.590;2023-02-25T11:14:42;10.40;77.70
7494;DHT22;3788;49.902;8.590;2023-02-25T11:17:13;10.60;77.80
7494;DHT22;3788;49.902;8.590;2023-02-25T11:19:44;10.70;77.10
7494;DHT22;3788;49.902;8.590;2023-02-25T11:22:22;10.70;74.60
7494;DHT22;3788;49.902;8.590;2023-02-25T11:24:56;10.50;74.10
7494;DHT22;3788;49.902;8.590;2023-02-25T11:27:32;10.20;74.30
7494;DHT22;3788;49.902;8.590;2023-02-25T11:30:03;10.00;75.10
7494;DHT22;3788;49.902;8.590;2023-02-25T11:32:31;9.90;77.20
7494;DHT22;3788;49.902;8.590;2023-02-25T11:35:02;9.90;77.40
7494;DHT22;3788;49.902;8.590;2023-02-25T11:37:36;9.90;77.20
7494;DHT22;3788;49.902;8.590;2023-02-25T11:40:19;9.90;75.90
7494;DHT22;3788;49.902;8.590;2023-02-25T11:43:00;9.80;75.60
7494;DHT22;3788;49.902;8.590;2023-02-25T11:45:28;9.70;76.20
7494;DHT22;3788;49.902;8.590;2023-02-25T11:47:57;9.60;76.30
7494;DHT22;3788;49.902;8.590;2023-02-25T11:50:26;9.60;76.70
7494;DHT22;3788;49.902;8.590;2023-02-25T11:53:02;9.70;76.60
7494;DHT22;3788;49.902;8.590;2023-02-25T11:55:50;9.70;76.70
7494;DHT22;3788;49.902;8.590;2023-02-25T11:58:25;9.70;76.70
7494;DHT22;3788;49.902;8.590;2023-02-25T12:00:57;9.70;76.70
7494;DHT22;3788;49.902;8.590;2023-02-25T12:03:50;9.70;76.20
7494;DHT22;3788;49.902;8.590;2023-02-25T12:06:31;9.70;76.40
7494;DHT22;3788;49.902;8.590;2023-02-25T12:09:29;9.70;76.20
7494;DHT22;3788;49.902;8.590;2023-02-25T12:12:30;9.60;76.40
7494;DHT22;3788;49.902;8.590;2023-02-25T12:15:33;9.60;77.50
7494;DHT22;3788;49.902;8.590;2023-02-25T12:18:29;9.60;76.70
7494;DHT22;3788;49.902;8.590;2023-02-25T12:21:20;9.50;76.90
7494;DHT22;3788;49.902;8.590;2023-02-25T12:24:15;9.30;77.20
7494;DHT22;3788;49.902;8.590;2023-02-25T12:27:31;9.20;77.80
7494;DHT22;3788;49.902;8.590;2023-02-25T12:30:20;9.10;78.50
7494;DHT22;3788;49.902;8.590;2023-02-25T12:33:05;8.90;80.00
7494;DHT22;3788;49.902;8.590;2023-02-25T12:35:54;8.80;83.10
7494;DHT22;3788;49.902;8.590;2023-02-25T12:41:42;8.50;88.00
7494;DHT22;3788;49.902;8.590;2023-02-25T12:47:24;8.30;90.90
7494;DHT22;3788;49.902;8.590;2023-02-25T12:50:21;8.20;91.30
7494;DHT22;3788;49.902;8.590;2023-02-25T12:53:03;8.20;91.50
7494;DHT22;3788;49.902;8.590;2023-02-25T12:55:59;8.10;90.80
7494;DHT22;3788;49.902;8.590;2023-02-25T12:58:47;8.10;90.70
7494;DHT22;3788;49.902;8.590;2023-02-25T13:01:47;8.00;90.60
7494;DHT22;3788;49.902;8.590;2023-02-25T13:04:42;8.00;90.60
7494;DHT22;3788;49.902;8.590;2023-02-25T13:10:08;8.10;90.60
7494;DHT22;3788;49.902;8.590;2023-02-25T13:15:48;7.80;90.40
7494;DHT22;3788;49.902;8.590;2023-02-25T13:18:20;7.80;90.70
7494;DHT22;3788;49.902;8.590;2023-02-25T13:21:01;7.80;90.90
7494;DHT22;3788;49.902;8.590;2023-02-25T13:23:58;7.80;90.70
7494;DHT22;3788;49.902;8.590;2023-02-25T13:26:49;7.80;90.40
7494;DHT22;3788;49.902;8.590;2023-02-25T13:29:35;7.80;90.50
7494;DHT22;3788;49.902;8.590;2023-02-25T13:32:20;7.70;90.70
7494;DHT22;3788;49.902;8.590;2023-02-25T13:35:05;7.70;90.80
7494;DHT22;3788;49.902;8.590;2023-02-25T13:37:44;7.70;90.90
7494;DHT22;3788;49.902;8.590;2023-02-25T13:40:28;7.60;91.00
7494;DHT22;3788;49.902;8.590;2023-02-25T13:43:02;7.70;91.10
7494;DHT22;3788;49.902;8.590;2023-02-25T13:45:48;7.80;90.80
7494;DHT22;3788;49.902;8.590;2023-02-25T13:48:41;7.90;90.50
7494;DHT22;3788;49.902;8.590;2023-02-25T13:51:26;8.00;90.40
7494;DHT22;3788;49.902;8.590;2023-02-25T13:54:17;8.10;90.30
7494;DHT22;3788;49.902;8.590;2023-02-25T13:56:55;8.10;90.20
7494;DHT22;3788;49.902;8.590;2023-02-25T13:59:37;8.10;89.60
7494;DHT22;3788;49.902;8.590;2023-02-25T14:02:43;8.10;88.80
7494;DHT22;3788;49.902;8.590;2023-02-25T14:05:36;8.10;88.40
7494;DHT22;3788;49.902;8.590;2023-02-25T14:08:15;8.20;88.50
7494;DHT22;3788;49.902;8.590;2023-02-25T14:10:56;8.30;88.20
7494;DHT22;3788;49.902;8.590;2023-02-25T14:13:52;8.40;87.50
7494;DHT22;3788;49.902;8.590;2023-02-25T14:16:34;8.40;87.40
7494;DHT22;3788;49.902;8.590;2023-02-25T14:19:17;8.50;87.30
7494;DHT22;3788;49.902;8.590;2023-02-25T14:21:58;8.50;87.40
7494;DHT22;3788;49.902;8.590;2023-02-25T14:24:34;8.60;87.30
7494;DHT22;3788;49.902;8.590;2023-02-25T14:27:16;8.70;87.10
7494;DHT22;3788;49.902;8.590;2023-02-25T14:29:59;8.80;85.50
7494;DHT22;3788;49.902;8.590;2023-02-25T14:32:40;8.80;84.80
7494;DHT22;3788;49.902;8.590;2023-02-25T14:35:26;8.80;84.50
7494;DHT22;3788;49.902;8.590;2023-02-25T14:38:05;8.80;82.40
7494;DHT22;3788;49.902;8.590;2023-02-25T14:40:38;8.80;82.20
7494;DHT22;3788;49.902;8.590;2023-02-25T14:43:27;8.80;81.90
7494;DHT22;3788;49.902;8.590;2023-02-25T14:45:59;9.00;82.30
7494;DHT22;3788;49.902;8.590;2023-02-25T14:48:31;9.00;82.10
7494;DHT22;3788;49.902;8.590;2023-02-25T14:51:16;9.00;82.10
7494;DHT22;3788;49.902;8.590;2023-02-25T14:54:02;8.80;84.20
7494;DHT22;3788;49.902;8.590;2023-02-25T14:56:45;8.10;90.80
7494;DHT22;3788;49.902;8.590;2023-02-25T14:59:43;7.20;93.70
7494;DHT22;3788;49.902;8.590;2023-02-25T15:02:36;6.30;96.10
7494;DHT22;3788;49.902;8.590;2023-02-25T15:05:39;5.60;98.30
7494;DHT22;3788;49.902;8.590;2023-02-25T15:08:41;4.90;99.90
7494;DHT22;3788;49.902;8.590;2023-02-25T15:11:24;4.50;99.90
7494;DHT22;3788;49.902;8.590;2023-02-25T15:14:23;4.40;99.90
7494;DHT22;3788;49.902;8.590;2023-02-25T15:17:23;4.40;99.90
7494;DHT22;3788;49.902;8.590;2023-02-25T15:20:02;4.30;99.90
7494;DHT22;3788;49.902;8.590;2023-02-25T15:22:34;4.20;99.90
7494;DHT22;3788;49.902;8.590;2023-02-25T15:25:33;4.20;99.90
7494;DHT22;3788;49.902;8.590;2023-02-25T15:28:02;4.20;99.90
7494;DHT22;3788;49.902;8.590;2023-02-25T15:31:03;4.20;99.90
7494;DHT22;3788;49.902;8.590;2023-02-25T15:33:33;4.20;99.90
7494;DHT22;3788;49.902;8.590;2023-02-25T15:36:19;4.20;99.90
7494;DHT22;3788;49.902;8.590;2023-02-25T15:38:47;4.20;99.90
7494;DHT22;3788;49.902;8.590;2023-02-25T15:44:38;4.30;99.90
7494;DHT22;3788;49.902;8.590;2023-02-25T15:47:24;4.40;99.90
7494;DHT22;3788;49.902;8.590;2023-02-25T15:49:52;4.60;99.90
7494;DHT22;3788;49.902;8.590;2023-02-25T15:52:48;4.70;99.90
7494;DHT22;3788;49.902;8.590;2023-02-25T15:55:26;4.80;99.90
7494;DHT22;3788;49.902;8.590;2023-02-25T15:57:55;5.00;99.90
7494;DHT22;3788;49.902;8.590;2023-02-25T16:00:53;5.10;99.90
7494;DHT22;3788;49.902;8.590;2023-02-25T16:03:40;5.30;99.90
7494;DHT22;3788;49.902;8.590;2023-02-25T16:06:15;5.50;99.90
7494;DHT22;3788;49.902;8.590;2023-02-25T16:08:48;5.60;99.90
7494;DHT22;3788;49.902;8.590;2023-02-25T16:11:27;5.60;99.90
7494;DHT22;3788;49.902;8.590;2023-02-25T16:13:56;5.50;99.90
7494;DHT22;3788;49.902;8.590;2023-02-25T16:16:26;5.40;99.90
7494;DHT22;3788;49.902;8.590;2023-02-25T16:18:56;5.40;99.90
7494;DHT22;3788;49.902;8.590;2023-02-25T16:21:26;5.30;99.90
7494;DHT22;3788;49.902;8.590;2023-02-25T16:23:54;5.20;99.90
7494;DHT22;3788;49.902;8.590;2023-02-25T16:26:42;5.20;99.90
7494;DHT22;3788;49.902;8.590;2023-02-25T16:29:18;5.20;99.90
7494;DHT22;3788;49.902;8.590;2023-02-25T16:31:54;5.20;99.20
7494;DHT22;3788;49.902;8.590;2023-02-25T16:34:26;5.20;97.70
7494;DHT22;3788;49.902;8.590;2023-02-25T16:37:03;5.20;97.00
7494;DHT22;3788;49.902;8.590;2023-02-25T16:39:32;5.20;96.10
7494;DHT22;3788;49.902;8.590;2023-02-25T16:42:01;5.30;95.30
7494;DHT22;3788;49.902;8.590;2023-02-25T16:44:32;5.30;94.30
7494;DHT22;3788;49.902;8.590;2023-02-25T16:47:01;5.30;93.20
7494;DHT22;3788;49.902;8.590;2023-02-25T16:49:31;5.30;92.40
7494;DHT22;3788;49.902;8.590;2023-02-25T16:51:58;5.30;91.80
7494;DHT22;3788;49.902;8.590;2023-02-25T16:54:28;5.30;92.00
7494;DHT22;3788;49.902;8.590;2023-02-25T16:56:58;5.30;92.00
7494;DHT22;3788;49.902;8.590;2023-02-25T16:59:29;5.30;91.80
7494;DHT22;3788;49.902;8.590;2023-02-25T17:01:58;5.20;91.70
7494;DHT22;3788;49.902;8.590;2023-02-25T17:04:30;5.20;91.70
7494;DHT22;3788;49.902;8.590;2023-02-25T17:07:11;5.10;90.50
7494;DHT22;3788;49.902;8.590;2023-02-25T17:09:43;5.10;90.00
7494;DHT22;3788;49.902;8.590;2023-02-25T17:12:14;5.10;89.20
7494;DHT22;3788;49.902;8.590;2023-02-25T17:14:42;5.00;88.60
7494;DHT22;3788;49.902;8.590;2023-02-25T17:17:15;4.90;88.20
7494;DHT22;3788;49.902;8.590;2023-02-25T17:19:44;4.90;88.10
7494;DHT22;3788;49.902;8.590;2023-02-25T17:22:11;4.90;87.90